createdAt,value
2019-04-27T00:00:49.820Z,67.07
2019-04-27T00:03:23.430Z,67.50
2019-04-27T00:06:08.516Z,67.66
2019-04-27T00:08:53.508Z,68.28
2019-04-27T00:11:30.052Z,68.54
2019-04-27T00:14:00.884Z,68.50
2019-04-27T00:16:36.543Z,68.42
2019-04-27T00:19:27.401Z,68.56
2019-04-27T00:22:00.721Z,68.50
2019-04-27T00:24:33.529Z,68.43
2019-04-27T00:27:05.775Z,67.97
2019-04-27T00:29:37.167Z,67.84
2019-04-27T00:32:07.905Z,67.81
2019-04-27T00:34:39.451Z,67.65
2019-04-27T00:37:28.522Z,67.94
2019-04-27T00:40:10.207Z,67.86
2019-04-27T00:42:41.467Z,67.96
2019-04-27T00:45:14.365Z,67.46
2019-04-27T00:47:56.405Z,67.68
2019-04-27T00:50:18.335Z,67.31
2019-04-27T00:52:49.424Z,66.94
2019-04-27T00:55:20.609Z,66.83
2019-04-27T00:58:12.953Z,66.60
2019-04-27T01:01:02.118Z,66.79
2019-04-27T01:03:34.753Z,67.12
2019-04-27T01:06:06.333Z,67.01
2019-04-27T01:08:39.502Z,66.93
2019-04-27T01:11:10.838Z,66.84
2019-04-27T01:13:43.397Z,67.04
2019-04-27T01:16:17.455Z,66.96
2019-04-27T01:18:48.822Z,67.12
2019-04-27T01:21:19.521Z,67.59
2019-04-27T01:23:50.594Z,67.70
2019-04-27T01:26:28.656Z,67.84
2019-04-27T01:29:04.092Z,67.74
2019-04-27T01:31:35.865Z,67.57
2019-04-27T01:34:09.275Z,67.51
2019-04-27T01:36:40.913Z,67.51
2019-04-27T01:39:16.220Z,67.30
2019-04-27T01:41:46.950Z,67.42
2019-04-27T01:44:19.353Z,67.26
2019-04-27T01:46:51.769Z,67.55
2019-04-27T01:49:22.880Z,67.41
2019-04-27T01:51:54.771Z,67.19
2019-04-27T01:54:27.029Z,67.53
2019-04-27T01:57:00.665Z,67.47
2019-04-27T01:59:30.850Z,67.12
2019-04-27T02:02:19.839Z,66.92
2019-04-27T02:05:08.967Z,67.86
2019-04-27T02:07:41.493Z,67.55
2019-04-27T02:10:14.434Z,67.75
2019-04-27T02:12:45.300Z,67.91
2019-04-27T02:15:16.400Z,68.16
2019-04-27T02:17:49.023Z,68.40
2019-04-27T02:20:21.253Z,68.15
2019-04-27T02:22:52.217Z,67.97
2019-04-27T02:25:23.377Z,68.47
2019-04-27T02:27:55.673Z,68.20
2019-04-27T02:30:44.671Z,68.14
2019-04-27T02:33:32.327Z,68.25
2019-04-27T02:36:03.037Z,68.42
2019-04-27T02:38:33.810Z,68.87
2019-04-27T02:41:05.310Z,68.64
2019-04-27T02:43:39.968Z,68.88
2019-04-27T02:46:10.136Z,68.85
2019-04-27T02:48:55.451Z,68.51
2019-04-27T02:51:20.291Z,68.66
2019-04-27T02:54:00.162Z,68.79
2019-04-27T02:56:31.164Z,68.77
2019-04-27T02:59:01.878Z,68.71
2019-04-27T03:01:53.372Z,68.63
2019-04-27T03:04:24.559Z,68.65
2019-04-27T03:06:56.456Z,68.90
2019-04-27T03:09:27.454Z,68.71
2019-04-27T03:12:02.286Z,69.03
2019-04-27T03:14:51.253Z,69.01
2019-04-27T03:17:26.643Z,68.79
2019-04-27T03:20:05.006Z,68.48
2019-04-27T03:22:40.782Z,68.22
2019-04-27T03:25:15.363Z,68.13
2019-04-27T03:27:53.979Z,67.88
2019-04-27T03:30:25.201Z,68.17
2019-04-27T03:33:02.730Z,68.30
2019-04-27T03:35:36.103Z,68.54
2019-04-27T03:38:04.199Z,68.54
2019-04-27T03:40:35.188Z,68.46
2019-04-27T03:43:09.366Z,68.67
2019-04-27T03:45:41.964Z,68.36
2019-04-27T03:48:12.825Z,68.55
2019-04-27T03:50:51.592Z,68.65
2019-04-27T03:53:24.212Z,68.34
2019-04-27T03:55:59.808Z,68.37
2019-04-27T03:58:32.512Z,68.17
2019-04-27T04:01:03.664Z,68.17
2019-04-27T04:03:34.379Z,68.06
2019-04-27T04:06:05.613Z,68.09
2019-04-27T04:08:36.171Z,68.07
2019-04-27T04:11:10.289Z,68.09
2019-04-27T04:13:43.112Z,68.08
2019-04-27T04:16:15.576Z,68.07
2019-04-27T04:19:01.088Z,68.08
2019-04-27T04:21:32.043Z,67.88
2019-04-27T04:24:02.772Z,67.97
2019-04-27T04:26:33.679Z,67.84
2019-04-27T04:29:05.081Z,67.62
2019-04-27T04:31:36.094Z,67.46
2019-04-27T04:34:11.556Z,67.50
2019-04-27T04:36:42.532Z,67.43
2019-04-27T04:39:12.521Z,67.10
2019-04-27T04:41:45.307Z,67.25
2019-04-27T04:44:20.565Z,67.05
2019-04-27T04:46:52.855Z,67.45
2019-04-27T04:49:23.634Z,67.37
2019-04-27T04:51:54.520Z,67.32
2019-04-27T04:54:26.188Z,67.43
2019-04-27T04:56:56.848Z,67.44
2019-04-27T04:59:29.083Z,67.21
2019-04-27T05:02:02.299Z,67.42
2019-04-27T05:04:33.446Z,67.10
2019-04-27T05:07:04.534Z,66.99
2019-04-27T05:09:35.369Z,67.34
2019-04-27T05:12:05.951Z,67.13
2019-04-27T05:14:38.799Z,67.27
2019-04-27T05:17:09.787Z,67.04
2019-04-27T05:19:40.688Z,67.79
2019-04-27T05:22:11.531Z,67.23
2019-04-27T05:24:42.392Z,67.46
2019-04-27T05:27:13.411Z,67.54
2019-04-27T05:29:44.179Z,67.77
2019-04-27T05:32:15.047Z,68.31
2019-04-27T05:34:46.336Z,69.00
2019-04-27T05:37:17.152Z,69.63
2019-04-27T05:39:48.721Z,69.95
2019-04-27T05:42:20.050Z,69.99
2019-04-27T05:44:55.713Z,69.66
2019-04-27T05:47:30.996Z,69.74
2019-04-27T05:50:03.294Z,69.86
2019-04-27T05:52:34.117Z,70.08
2019-04-27T05:55:05.813Z,70.27
2019-04-27T05:57:39.020Z,70.51
2019-04-27T06:00:11.770Z,71.00
2019-04-27T06:02:43.983Z,70.71
2019-04-27T06:05:14.800Z,71.00
2019-04-27T06:07:45.598Z,70.79
2019-04-27T06:10:16.992Z,71.25
2019-04-27T06:12:48.611Z,71.50
2019-04-27T06:15:19.874Z,71.22
2019-04-27T06:17:52.005Z,71.32
2019-04-27T06:20:22.746Z,71.06
2019-04-27T06:22:53.886Z,71.00
2019-04-27T06:25:24.606Z,71.07
2019-04-27T06:27:56.106Z,70.86
2019-04-27T06:30:26.760Z,70.79
2019-04-27T06:33:01.701Z,71.07
2019-04-27T06:35:32.563Z,71.37
2019-04-27T06:38:03.448Z,71.27
2019-04-27T06:40:35.492Z,70.98
2019-04-27T06:43:08.508Z,70.67
2019-04-27T06:45:40.107Z,70.35
2019-04-27T06:48:11.003Z,70.32
2019-04-27T06:50:43.030Z,70.46
2019-04-27T06:53:14.022Z,70.53
2019-04-27T06:55:44.829Z,69.99
2019-04-27T06:58:15.603Z,69.90
2019-04-27T07:00:46.353Z,69.50
2019-04-27T07:03:18.773Z,69.43
2019-04-27T07:05:49.915Z,68.63
2019-04-27T07:08:20.956Z,68.34
2019-04-27T07:10:53.193Z,67.91
2019-04-27T07:13:24.192Z,68.03
2019-04-27T07:15:54.945Z,68.15
2019-04-27T07:18:26.035Z,68.54
2019-04-27T07:20:58.655Z,69.12
2019-04-27T07:23:30.094Z,68.88
2019-04-27T07:26:02.957Z,69.00
2019-04-27T07:28:33.569Z,68.98
2019-04-27T07:31:04.597Z,68.60
2019-04-27T07:33:35.782Z,68.48
2019-04-27T07:36:06.678Z,68.24
2019-04-27T07:38:40.184Z,68.62
2019-04-27T07:41:11.033Z,68.14
2019-04-27T07:44:00.911Z,67.83
2019-04-27T07:46:31.885Z,67.86
2019-04-27T07:49:02.552Z,67.77
2019-04-27T07:51:34.408Z,68.06
2019-04-27T07:54:05.897Z,67.70
2019-04-27T07:56:36.894Z,67.73
2019-04-27T07:59:09.102Z,67.75
2019-04-27T08:01:40.058Z,67.58
2019-04-27T08:04:10.721Z,67.92
2019-04-27T08:06:41.510Z,67.91
2019-04-27T08:09:13.241Z,67.50
2019-04-27T08:11:45.578Z,67.48
2019-04-27T08:14:16.514Z,67.28
2019-04-27T08:16:48.652Z,67.23
2019-04-27T08:19:19.771Z,67.24
2019-04-27T08:21:50.420Z,66.71
2019-04-27T08:24:21.282Z,66.79
2019-04-27T08:26:53.582Z,66.87
2019-04-27T08:29:26.633Z,66.64
2019-04-27T08:32:01.669Z,66.69
2019-04-27T08:34:35.523Z,66.77
2019-04-27T08:37:08.738Z,67.39
2019-04-27T08:39:39.731Z,66.51
2019-04-27T08:42:12.151Z,66.38
2019-04-27T08:44:43.803Z,66.08
2019-04-27T08:47:15.283Z,66.02
2019-04-27T08:49:46.323Z,65.30
2019-04-27T08:52:17.131Z,65.07
2019-04-27T08:54:49.128Z,65.49
2019-04-27T08:57:21.374Z,65.80
2019-04-27T08:59:54.613Z,65.94
2019-04-27T09:02:38.964Z,65.74
2019-04-27T09:04:59.602Z,66.29
2019-04-27T09:07:32.495Z,66.29
2019-04-27T09:10:23.619Z,66.48
2019-04-27T09:12:58.856Z,66.44
2019-04-27T09:15:49.451Z,66.55
2019-04-27T09:18:22.136Z,66.45
2019-04-27T09:20:58.933Z,66.37
2019-04-27T09:23:29.922Z,66.63
2019-04-27T09:26:01.018Z,66.62
2019-04-27T09:28:32.246Z,66.41
2019-04-27T09:31:03.353Z,66.56
2019-04-27T09:33:34.470Z,66.21
2019-04-27T09:36:06.184Z,65.87
2019-04-27T09:38:38.779Z,65.90
2019-04-27T09:41:09.933Z,65.98
2019-04-27T09:43:40.987Z,65.50
2019-04-27T09:46:15.747Z,65.08
2019-04-27T09:48:47.410Z,65.02
2019-04-27T09:51:18.730Z,65.22
2019-04-27T09:53:49.793Z,64.73
2019-04-27T09:56:22.404Z,64.72
2019-04-27T09:58:57.033Z,65.17
2019-04-27T10:01:28.828Z,65.59
2019-04-27T10:03:59.332Z,65.49
2019-04-27T10:06:30.325Z,65.40
2019-04-27T10:09:03.042Z,65.25
2019-04-27T10:11:35.632Z,64.82
2019-04-27T10:14:06.689Z,65.65
2019-04-27T10:16:37.980Z,65.59
2019-04-27T10:19:08.873Z,65.40
2019-04-27T10:21:41.004Z,65.19
2019-04-27T10:24:12.160Z,64.85
2019-04-27T10:26:43.888Z,63.40
2019-04-27T10:29:16.205Z,62.48
2019-04-27T10:31:48.235Z,62.23
2019-04-27T10:34:19.248Z,62.19
2019-04-27T10:36:50.390Z,63.35
2019-04-27T10:39:22.534Z,63.68
2019-04-27T10:41:56.356Z,63.90
2019-04-27T10:44:28.299Z,63.32
2019-04-27T10:46:59.487Z,62.59
2019-04-27T10:49:32.689Z,62.14
2019-04-27T10:52:05.914Z,62.02
2019-04-27T10:54:37.164Z,61.56
2019-04-27T10:57:08.040Z,61.82
2019-04-27T10:59:38.919Z,61.62
2019-04-27T11:02:11.562Z,60.93
2019-04-27T11:04:49.846Z,60.51
2019-04-27T11:07:22.356Z,60.00
2019-04-27T11:09:53.765Z,60.06
2019-04-27T11:12:25.879Z,59.37
2019-04-27T11:14:57.748Z,59.10
2019-04-27T11:17:28.289Z,59.64
2019-04-27T11:19:59.150Z,59.24
2019-04-27T11:22:30.054Z,58.81
2019-04-27T11:25:00.939Z,58.80
2019-04-27T11:27:33.677Z,58.28
2019-04-27T11:30:10.545Z,58.51
2019-04-27T11:32:41.339Z,57.79
2019-04-27T11:35:18.551Z,60.46
2019-04-27T11:37:51.183Z,59.51
2019-04-27T11:40:24.420Z,59.33
2019-04-27T11:42:57.074Z,58.58
2019-04-27T11:45:29.955Z,58.55
2019-04-27T11:48:01.999Z,58.26
2019-04-27T11:50:32.815Z,57.93
2019-04-27T11:53:06.022Z,58.05
2019-04-27T11:55:37.210Z,57.78
2019-04-27T11:58:08.414Z,58.09
2019-04-27T12:00:39.069Z,58.22
2019-04-27T12:03:09.780Z,58.45
2019-04-27T12:05:41.905Z,58.46
2019-04-27T12:08:13.245Z,58.59
2019-04-27T12:10:46.439Z,58.92
2019-04-27T12:13:18.651Z,58.41
2019-04-27T12:15:51.688Z,58.52
2019-04-27T12:18:22.547Z,58.88
2019-04-27T12:20:53.481Z,58.79
2019-04-27T12:23:35.377Z,58.65
2019-04-27T12:25:56.674Z,57.11
2019-04-27T12:28:29.085Z,57.11
2019-04-27T12:31:02.095Z,56.11
2019-04-27T12:33:35.805Z,55.09
2019-04-27T12:36:09.710Z,54.76
2019-04-27T12:38:40.652Z,55.70
2019-04-27T12:41:13.010Z,54.64
2019-04-27T12:43:45.787Z,54.25
2019-04-27T12:46:16.624Z,54.82
2019-04-27T12:48:48.552Z,54.53
2019-04-27T12:51:21.050Z,54.12
2019-04-27T12:53:56.007Z,53.78
2019-04-27T12:56:32.440Z,53.03
2019-04-27T12:59:05.559Z,51.42
2019-04-27T13:01:36.822Z,50.50
2019-04-27T13:04:07.972Z,49.95
2019-04-27T13:06:38.870Z,49.82
2019-04-27T13:09:09.829Z,50.44
2019-04-27T13:11:42.373Z,50.37
2019-04-27T13:14:16.350Z,50.19
2019-04-27T13:16:48.452Z,50.48
2019-04-27T13:19:20.108Z,50.41
2019-04-27T13:21:53.782Z,49.28
2019-04-27T13:24:26.074Z,48.21
2019-04-27T13:26:57.585Z,48.52
2019-04-27T13:29:28.761Z,48.45
2019-04-27T13:32:00.131Z,47.70
2019-04-27T13:34:31.012Z,48.32
2019-04-27T13:37:04.424Z,49.41
2019-04-27T13:39:35.945Z,47.76
2019-04-27T13:42:07.892Z,49.03
2019-04-27T13:44:39.516Z,48.32
2019-04-27T13:47:29.500Z,48.62
2019-04-27T13:50:01.926Z,48.15
2019-04-27T13:52:36.234Z,46.47
2019-04-27T13:55:07.618Z,45.81
2019-04-27T13:57:49.755Z,47.62
2019-04-27T14:00:14.850Z,47.49
2019-04-27T14:02:46.465Z,47.46
2019-04-27T14:05:18.269Z,47.71
2019-04-27T14:07:49.856Z,49.45
2019-04-27T14:10:21.247Z,51.10
2019-04-27T14:12:52.341Z,51.14
2019-04-27T14:15:23.397Z,50.64
2019-04-27T14:17:55.914Z,50.21
2019-04-27T14:20:28.762Z,51.09
2019-04-27T14:23:20.656Z,50.60
2019-04-27T14:25:53.774Z,51.47
2019-04-27T14:28:25.888Z,50.64
2019-04-27T14:30:58.915Z,50.11
2019-04-27T14:33:30.356Z,49.12
2019-04-27T14:36:02.047Z,49.16
2019-04-27T14:38:36.019Z,49.46
2019-04-27T14:41:08.928Z,49.94
2019-04-27T14:43:40.195Z,49.69
2019-04-27T14:46:11.107Z,48.99
2019-04-27T14:48:41.947Z,49.20
2019-04-27T14:51:14.013Z,48.26
2019-04-27T14:53:45.213Z,47.84
2019-04-27T14:56:18.191Z,48.50
2019-04-27T14:58:49.548Z,49.51
2019-04-27T15:01:20.737Z,49.47
2019-04-27T15:03:51.861Z,47.92
2019-04-27T15:06:23.123Z,48.16
2019-04-27T15:08:55.798Z,47.27
2019-04-27T15:11:27.336Z,46.84
2019-04-27T15:14:00.056Z,47.25
2019-04-27T15:16:30.945Z,47.96
2019-04-27T15:19:17.852Z,47.30
2019-04-27T15:21:57.799Z,47.74
2019-04-27T15:24:21.241Z,47.92
2019-04-27T15:26:54.403Z,46.60
2019-04-27T15:29:26.841Z,46.12
2019-04-27T15:32:01.328Z,46.73
2019-04-27T15:34:44.694Z,45.68
2019-04-27T15:37:18.534Z,45.45
2019-04-27T15:40:08.351Z,45.51
2019-04-27T15:42:49.053Z,47.42
2019-04-27T15:45:24.044Z,47.25
2019-04-27T15:47:55.066Z,46.40
2019-04-27T15:50:33.281Z,46.06
2019-04-27T15:53:15.869Z,46.64
2019-04-27T15:55:59.989Z,47.92
2019-04-27T15:58:51.294Z,48.36
2019-04-27T16:01:24.752Z,47.60
2019-04-27T16:03:58.333Z,47.22
2019-04-27T16:06:29.267Z,47.36
2019-04-27T16:09:00.372Z,47.38
2019-04-27T16:11:31.851Z,48.55
2019-04-27T16:14:06.704Z,48.67
2019-04-27T16:16:38.189Z,48.12
2019-04-27T16:19:11.572Z,48.78
2019-04-27T16:21:47.821Z,49.59
2019-04-27T16:24:17.020Z,48.70
2019-04-27T16:26:54.639Z,47.77
2019-04-27T16:29:23.181Z,47.66
2019-04-27T16:31:55.652Z,48.03
2019-04-27T16:34:28.570Z,47.59
2019-04-27T16:37:01.070Z,47.64
2019-04-27T16:39:33.932Z,48.18
2019-04-27T16:42:09.970Z,48.87
2019-04-27T16:44:40.252Z,47.85
2019-04-27T16:47:12.583Z,48.86
2019-04-27T16:49:48.325Z,49.17
2019-04-27T16:52:19.462Z,49.59
2019-04-27T16:54:57.199Z,49.33
2019-04-27T16:57:28.117Z,50.38
2019-04-27T17:00:01.183Z,50.46
2019-04-27T17:02:33.689Z,50.45
2019-04-27T17:05:05.687Z,50.46
2019-04-27T17:07:37.613Z,49.94
2019-04-27T17:10:10.840Z,49.51
2019-04-27T17:12:45.810Z,49.82
2019-04-27T17:15:33.272Z,49.74
2019-04-27T17:18:24.289Z,49.67
2019-04-27T17:20:59.258Z,50.05
2019-04-27T17:23:31.528Z,49.77
2019-04-27T17:26:09.224Z,50.11
2019-04-27T17:28:39.240Z,49.72
2019-04-27T17:31:13.001Z,49.96
2019-04-27T17:33:48.844Z,49.65
2019-04-27T17:36:19.972Z,50.54
2019-04-27T17:38:51.431Z,50.70
2019-04-27T17:41:22.744Z,51.69
2019-04-27T17:43:53.679Z,53.39
2019-04-27T17:46:24.563Z,54.45
2019-04-27T17:48:55.628Z,56.79
2019-04-27T17:51:30.518Z,58.54
2019-04-27T17:54:02.963Z,59.41
2019-04-27T17:56:36.216Z,60.20
2019-04-27T17:59:10.395Z,61.54
2019-04-27T18:01:39.326Z,62.30
2019-04-27T18:04:10.675Z,63.34
2019-04-27T18:06:42.669Z,62.88
2019-04-27T18:09:18.561Z,63.82
2019-04-27T18:11:50.379Z,65.42
2019-04-27T18:14:21.671Z,65.85
2019-04-27T18:16:52.751Z,65.42
2019-04-27T18:19:25.685Z,62.62
2019-04-27T18:22:02.060Z,64.49
2019-04-27T18:24:35.144Z,64.57
2019-04-27T18:27:19.651Z,66.60
2019-04-27T18:29:50.506Z,66.94
2019-04-27T18:32:23.568Z,67.74
2019-04-27T18:34:54.879Z,66.82
2019-04-27T18:37:28.212Z,66.41
2019-04-27T18:39:59.658Z,64.85
2019-04-27T18:42:31.333Z,64.81
2019-04-27T18:45:07.074Z,67.68
2019-04-27T18:47:40.219Z,65.38
2019-04-27T18:50:18.175Z,64.65
2019-04-27T18:53:08.252Z,64.03
2019-04-27T18:55:41.569Z,63.42
2019-04-27T18:58:12.707Z,63.50
2019-04-27T19:00:43.563Z,63.77
2019-04-27T19:03:15.967Z,63.45
2019-04-27T19:05:48.093Z,64.13
2019-04-27T19:08:20.191Z,64.72
2019-04-27T19:10:51.301Z,64.69
2019-04-27T19:13:22.425Z,64.82
2019-04-27T19:15:54.111Z,69.57
2019-04-27T19:18:26.236Z,71.14
2019-04-27T19:20:58.468Z,68.76
2019-04-27T19:23:30.710Z,65.98
2019-04-27T19:26:20.510Z,65.96
2019-04-27T19:29:08.580Z,66.74
2019-04-27T19:31:50.067Z,68.41
2019-04-27T19:34:21.086Z,69.83
2019-04-27T19:36:51.799Z,68.07
2019-04-27T19:39:22.906Z,72.49
2019-04-27T19:42:00.342Z,74.49
2019-04-27T19:44:29.166Z,74.80
2019-04-27T19:47:00.417Z,69.49
2019-04-27T19:49:31.958Z,69.08
2019-04-27T19:52:02.729Z,68.62
2019-04-27T19:54:33.699Z,68.48
2019-04-27T19:57:04.742Z,68.80
2019-04-27T19:59:38.047Z,68.54
2019-04-27T20:02:10.978Z,68.64
2019-04-27T20:04:42.841Z,69.23
2019-04-27T20:07:14.982Z,70.22
2019-04-27T20:09:47.895Z,68.72
2019-04-27T20:12:21.305Z,68.74
2019-04-27T20:14:58.490Z,68.59
2019-04-27T20:17:31.502Z,69.72
2019-04-27T20:20:02.808Z,71.00
2019-04-27T20:22:36.799Z,70.90
2019-04-27T20:25:07.710Z,70.89
2019-04-27T20:27:46.766Z,72.06
2019-04-27T20:30:13.148Z,73.89
2019-04-27T20:32:44.991Z,71.37
2019-04-27T20:35:15.719Z,72.42
2019-04-27T20:37:46.450Z,72.06
2019-04-27T20:40:17.144Z,73.25
2019-04-27T20:42:48.071Z,72.92
2019-04-27T20:45:18.783Z,72.49
2019-04-27T20:47:52.408Z,72.52
2019-04-27T20:50:22.708Z,71.98
2019-04-27T20:52:55.510Z,72.30
2019-04-27T20:55:27.329Z,73.06
2019-04-27T20:58:02.091Z,74.22
2019-04-27T21:00:31.989Z,73.24
2019-04-27T21:03:05.360Z,73.81
2019-04-27T21:05:46.837Z,73.96
2019-04-27T21:08:20.814Z,77.85
2019-04-27T21:10:52.196Z,74.19
2019-04-27T21:13:22.945Z,74.35
2019-04-27T21:15:54.487Z,74.10
2019-04-27T21:18:26.306Z,73.57
2019-04-27T21:20:57.166Z,73.37
2019-04-27T21:23:28.936Z,73.47
2019-04-27T21:26:02.142Z,77.45
2019-04-27T21:28:34.301Z,73.89
2019-04-27T21:31:07.194Z,73.63
2019-04-27T21:33:38.113Z,73.59
2019-04-27T21:36:08.787Z,74.27
2019-04-27T21:38:42.548Z,73.18
2019-04-27T21:41:12.035Z,74.30
2019-04-27T21:43:43.815Z,74.75
2019-04-27T21:46:15.441Z,73.50
2019-04-27T21:48:46.490Z,74.58
2019-04-27T21:51:18.063Z,74.33
2019-04-27T21:53:57.229Z,73.71
2019-04-27T21:56:28.305Z,73.35
2019-04-27T21:59:00.959Z,72.97
2019-04-27T22:01:33.599Z,73.93
2019-04-27T22:04:08.700Z,78.53
2019-04-27T22:11:23.711Z,79.02
2019-04-27T22:13:55.032Z,73.93
2019-04-27T22:16:25.884Z,73.35
2019-04-27T22:18:56.736Z,74.89
2019-04-27T22:21:27.862Z,79.27
2019-04-27T22:24:03.590Z,79.00
2019-04-27T22:26:35.263Z,81.76
2019-04-27T22:29:06.671Z,81.41
2019-04-27T22:31:37.616Z,82.23
2019-04-27T22:34:08.264Z,83.77
2019-04-27T22:36:38.915Z,83.41
2019-04-27T22:39:20.839Z,84.12
2019-04-27T22:41:53.210Z,84.69
2019-04-27T22:44:25.631Z,85.52
2019-04-27T22:46:56.732Z,85.77
2019-04-27T22:49:27.891Z,85.19
2019-04-27T22:52:01.532Z,85.23
2019-04-27T22:54:33.121Z,85.58
2019-04-27T22:57:05.955Z,84.79
2019-04-27T22:59:44.625Z,84.81
2019-04-27T23:02:29.400Z,84.82
2019-04-27T23:05:01.962Z,81.74
2019-04-27T23:07:34.099Z,80.99
2019-04-27T23:10:07.471Z,79.47
2019-04-27T23:12:38.932Z,77.05
2019-04-27T23:15:11.771Z,75.90
2019-04-27T23:17:55.167Z,75.16
